Time;durP1;ratioP1;P1;durP2;ratioP2;P2;SDS_P1;SDS_P2;PMS_P1;PMS_P2;Temp;Humidity;BMP_temperature;BMP_pressure;BME280_temperature;BME280_humidity;BME280_pressure;Samples;Min_cycle;Max_cycle;Signal;HPM_P1;HPM_P2
2022/04/02 00:01:41;;;;;;;7.97;3.17;;;-1.30;99.90;;;;;;5114788;28;20051;-28
2022/04/02 00:04:07;;;;;;;6.37;3.00;;;-0.90;99.90;;;;;;5115707;28;20055;-27
2022/04/02 00:06:33;;;;;;;10.37;3.03;;;-1.30;99.90;;;;;;5115651;28;20104;-27
2022/04/02 00:08:59;;;;;;;5.93;3.27;;;-0.90;99.90;;;;;;5115892;28;20058;-28
2022/04/02 00:11:25;;;;;;;6.93;3.07;;;-1.10;99.90;;;;;;5115555;28;20473;-28
2022/04/02 00:13:51;;;;;;;5.87;3.30;;;-1.50;99.90;;;;;;5097554;28;20043;-29
2022/04/02 00:16:17;;;;;;;9.20;3.40;;;-1.60;99.90;;;;;;5114153;28;20047;-28
2022/04/02 00:18:43;;;;;;;11.50;3.00;;;-1.50;99.90;;;;;;5115369;27;20449;-27
2022/04/02 00:21:09;;;;;;;9.33;3.20;;;-1.50;99.90;;;;;;5115329;28;20043;-28
2022/04/02 00:23:43;;;;;;;6.13;3.40;;;-1.30;99.90;;;;;;5116145;28;20181;-29
2022/04/02 00:26:11;;;;;;;7.00;3.20;;;-1.40;99.90;;;;;;5115925;28;20381;-28
2022/04/02 00:28:39;;;;;;;5.87;3.07;;;-1.60;99.90;;;;;;5115251;28;20039;-28
2022/04/02 00:31:07;;;;;;;8.47;3.27;;;-1.60;99.90;;;;;;5114366;28;20052;-27
2022/04/02 00:33:34;;;;;;;6.17;3.50;;;-1.80;99.90;;;;;;5097158;28;20054;-27
2022/04/02 00:36:00;;;;;;;9.00;3.67;;;-1.80;99.90;;;;;;5113821;28;20043;-27
2022/04/02 00:38:26;;;;;;;11.10;4.07;;;-1.80;99.90;;;;;;5115047;28;20050;-29
2022/04/02 00:40:52;;;;;;;5.93;3.23;;;-1.70;99.90;;;;;;5115838;28;20052;-27
2022/04/02 00:43:57;;;;;;;5.83;3.53;;;-1.60;99.90;;;;;;5114961;28;20495;-27
2022/04/02 00:46:23;;;;;;;6.47;2.90;;;-1.70;1.00;;;;;;5107708;28;20063;-27
2022/04/02 00:48:50;;;;;;;5.17;2.80;;;-1.50;1.00;;;;;;5114890;28;20070;-27
2022/04/02 00:51:18;;;;;;;7.60;2.97;;;-1.80;1.00;;;;;;5097425;28;20388;-27
2022/04/02 00:53:47;;;;;;;5.90;3.50;;;-1.90;1.00;;;;;;5114714;28;20505;-28
2022/04/02 00:56:14;;;;;;;8.03;3.63;;;-2.00;99.90;;;;;;5124465;27;20424;-27
2022/04/02 00:58:39;;;;;;;4.63;2.90;;;-2.10;99.90;;;;;;5135024;27;20051;-28
2022/04/02 01:01:08;;;;;;;6.17;3.00;;;-2.10;1.00;;;;;;5135769;27;20042;-27
2022/04/02 01:03:35;;;;;;;7.57;4.27;;;-2.10;1.00;;;;;;5116991;27;20042;-27
2022/04/02 01:06:02;;;;;;;5.70;3.33;;;-2.10;1.00;;;;;;5135672;27;20078;-28
2022/04/02 01:08:27;;;;;;;4.97;3.43;;;-2.20;1.00;;;;;;5099755;27;20043;-28
2022/04/02 01:10:56;;;;;;;5.50;3.00;;;-2.00;1.00;;;;;;5117674;27;20046;-27
2022/04/02 01:13:23;;;;;;;8.27;3.80;;;-2.00;1.00;;;;;;5135013;27;20055;-28
2022/04/02 01:15:48;;;;;;;8.00;3.07;;;-1.20;1.00;;;;;;5134884;27;20079;-27
2022/04/02 01:18:14;;;;;;;6.07;2.27;;;-2.00;1.00;;;;;;5116566;27;20051;-28
2022/04/02 01:20:40;;;;;;;6.37;2.90;;;-2.10;1.00;;;;;;5135409;27;20047;-27
2022/04/02 01:23:08;;;;;;;5.63;3.03;;;-2.20;1.00;;;;;;5134784;27;20042;-27
2022/04/02 01:25:34;;;;;;;5.43;3.20;;;-2.20;1.00;;;;;;5116682;27;20143;-27
2022/04/02 01:28:00;;;;;;;4.07;2.70;;;-2.10;1.00;;;;;;5116465;28;20089;-28
2022/04/02 01:30:30;;;;;;;8.43;3.40;;;-1.80;1.00;;;;;;5134787;27;20061;-27
2022/04/02 01:32:56;;;;;;;5.80;3.00;;;-1.60;1.00;;;;;;5134659;27;20129;-28
2022/04/02 01:35:22;;;;;;;6.13;2.80;;;-1.80;1.00;;;;;;5117301;27;20057;-28
2022/04/02 01:37:51;;;;;;;8.83;3.00;;;-2.10;1.00;;;;;;5134657;28;20051;-27
2022/04/02 01:40:17;;;;;;;5.50;2.83;;;-2.00;1.00;;;;;;5134674;28;20095;-27
2022/04/02 01:42:44;;;;;;;8.37;3.20;;;-2.20;4.10;;;;;;5116282;28;20043;-27
2022/04/02 01:45:10;;;;;;;9.90;4.60;;;-1.60;1.00;;;;;;5116878;28;20043;-28
2022/04/02 01:47:36;;;;;;;6.13;2.83;;;-2.00;1.00;;;;;;5134619;28;20058;-28
2022/04/02 01:50:03;;;;;;;7.77;3.27;;;-2.00;1.00;;;;;;5134573;28;20122;-28
2022/04/02 01:52:29;;;;;;;5.30;2.77;;;-2.00;1.00;;;;;;5134608;28;20050;-28
2022/04/02 01:54:55;;;;;;;5.97;3.43;;;-1.90;1.00;;;;;;5117074;28;20043;-27
2022/04/02 01:57:21;;;;;;;6.47;2.80;;;-1.40;1.00;;;;;;5099237;28;20374;-27
2022/04/02 01:59:49;;;;;;;5.67;2.70;;;-1.90;1.00;;;;;;5134492;28;20051;-27
2022/04/02 02:02:16;;;;;;;9.50;3.23;;;-2.00;1.00;;;;;;5116681;28;20094;-28
2022/04/02 02:04:42;;;;;;;9.00;3.23;;;-1.80;24.90;;;;;;5116344;28;20092;-31
2022/04/02 02:07:07;;;;;;;7.50;3.07;;;-1.90;49.40;;;;;;5116045;28;20075;-27
2022/04/02 02:09:34;;;;;;;9.43;3.50;;;-2.20;28.50;;;;;;5134589;28;20047;-27
2022/04/02 02:12:01;;;;;;;4.40;2.73;;;-2.20;24.50;;;;;;5137417;27;20046;-27
2022/04/02 02:14:28;;;;;;;7.70;2.83;;;-2.20;1.00;;;;;;5138389;27;20046;-27
2022/04/02 02:16:53;;;;;;;8.17;2.57;;;-2.10;48.90;;;;;;5102984;27;20047;-28
2022/04/02 02:19:19;;;;;;;4.27;2.67;;;-2.10;41.10;;;;;;5138326;27;20043;-27
2022/04/02 02:21:45;;;;;;;6.57;2.57;;;-1.70;38.90;;;;;;5120137;27;20078;-28
2022/04/02 02:24:10;;;;;;;7.10;2.53;;;-1.80;64.40;;;;;;5138536;27;20039;-27
2022/04/02 02:26:36;;;;;;;3.93;2.10;;;-1.30;73.10;;;;;;5138443;27;20042;-28
2022/04/02 02:29:05;;;;;;;8.90;1.90;;;-0.50;29.20;;;;;;5138444;27;20467;-27
2022/04/02 02:31:31;;;;;;;4.47;1.97;;;-1.00;1.00;;;;;;5120011;27;20047;-28
2022/04/02 02:36:41;;;;;;;4.73;1.70;;;-0.80;1.00;;;;;;5138018;27;20082;-28
2022/04/02 02:39:07;;;;;;;3.90;1.40;;;-0.30;1.00;;;;;;5137974;27;20070;-28
2022/04/02 02:41:33;;;;;;;3.20;1.57;;;-0.80;1.00;;;;;;5137898;27;20055;-28
2022/04/02 02:43:59;;;;;;;5.60;1.93;;;-0.80;1.00;;;;;;5119677;27;20051;-28
2022/04/02 02:46:25;;;;;;;4.20;1.77;;;-0.60;99.90;;;;;;5119958;27;20096;-27
2022/04/02 02:48:50;;;;;;;6.03;1.57;;;-0.60;99.90;;;;;;5137416;27;20075;-27
2022/04/02 02:51:16;;;;;;;2.80;1.00;;;-0.60;99.90;;;;;;5120141;27;20039;-28
2022/04/02 02:53:44;;;;;;;4.10;1.60;;;-0.60;99.90;;;;;;5137666;27;20042;-27
2022/04/02 02:56:10;;;;;;;3.63;1.33;;;-0.50;99.90;;;;;;5137163;27;20493;-27
2022/04/02 02:58:36;;;;;;;3.20;1.57;;;-0.30;99.90;;;;;;5138109;27;20107;-27
2022/04/02 03:01:02;;;;;;;2.87;1.33;;;-0.70;99.90;;;;;;5137549;27;20497;-27
2022/04/02 03:03:28;;;;;;;4.10;1.70;;;-0.50;99.90;;;;;;5119462;27;20050;-28
2022/04/02 03:05:54;;;;;;;7.80;1.50;;;-0.90;99.90;;;;;;5119393;27;20553;-27
2022/04/02 03:08:20;;;;;;;3.73;1.60;;;-0.70;99.90;;;;;;5137448;27;20087;-27
2022/04/02 03:10:45;;;;;;;1.83;1.03;;;-0.80;99.90;;;;;;5137333;27;20058;-27
2022/04/02 03:13:11;;;;;;;3.73;0.93;;;-1.00;99.90;;;;;;5136963;27;20123;-27
2022/04/02 03:15:37;;;;;;;4.20;1.47;;;-1.00;99.90;;;;;;5137673;27;20036;-28
2022/04/02 03:18:08;;;;;;;3.87;1.13;;;-0.90;99.90;;;;;;5137182;27;20054;-27
2022/04/02 03:20:36;;;;;;;4.80;1.07;;;0.00;99.90;;;;;;5119108;27;20519;-27
2022/04/02 03:23:02;;;;;;;5.83;1.13;;;-0.80;99.90;;;;;;5137345;27;20425;-27
2022/04/02 03:25:29;;;;;;;3.30;1.20;;;-0.80;99.90;;;;;;5119235;27;20078;-27
2022/04/02 03:27:55;;;;;;;4.27;1.10;;;-0.70;99.90;;;;;;5136740;27;20543;-27
2022/04/02 03:30:23;;;;;;;2.57;0.77;;;-0.70;99.90;;;;;;5101501;27;20047;-27
2022/04/02 03:32:50;;;;;;;1.87;0.73;;;-0.50;99.90;;;;;;5136875;27;20039;-28
2022/04/02 03:35:18;;;;;;;3.67;1.00;;;-0.50;99.90;;;;;;5136830;27;20047;-27
2022/04/02 03:37:46;;;;;;;2.77;1.13;;;-0.50;99.90;;;;;;5102444;27;20043;-27
2022/04/02 03:40:22;;;;;;;2.60;0.80;;;-0.40;99.90;;;;;;5118523;27;20035;-27
2022/04/02 03:42:48;;;;;;;3.90;1.30;;;-0.40;99.90;;;;;;5101910;27;20086;-28
2022/04/02 03:45:16;;;;;;;3.27;0.80;;;-0.60;99.90;;;;;;5118646;27;20043;-27
2022/04/02 03:47:42;;;;;;;2.87;1.10;;;-0.10;99.90;;;;;;5136632;27;20051;-27
2022/04/02 03:50:08;;;;;;;4.67;0.97;;;-0.50;99.90;;;;;;5137150;27;20047;-27
2022/04/02 03:52:34;;;;;;;3.47;0.90;;;-0.40;99.90;;;;;;5137398;27;20341;-27
2022/04/02 03:55:00;;;;;;;3.43;1.00;;;0.30;99.90;;;;;;5136417;27;20046;-27
2022/04/02 03:57:26;;;;;;;4.07;0.93;;;-0.40;99.90;;;;;;5137390;27;20051;-27
2022/04/02 03:59:52;;;;;;;2.17;0.80;;;-0.50;99.90;;;;;;5136384;27;20051;-28
2022/04/02 04:02:17;;;;;;;3.00;1.07;;;-0.30;99.90;;;;;;5136408;27;20057;-27
2022/04/02 04:04:43;;;;;;;6.83;1.00;;;0.50;99.90;;;;;;5136556;27;20122;-27
2022/04/02 04:07:09;;;;;;;2.63;0.93;;;-0.50;99.90;;;;;;5136218;27;20503;-28
2022/04/02 04:09:36;;;;;;;4.40;1.43;;;-0.30;99.90;;;;;;5136710;27;20519;-27
2022/04/02 04:12:02;;;;;;;2.53;0.90;;;-0.30;99.90;;;;;;5100872;27;20532;-27
2022/04/02 04:14:28;;;;;;;2.30;1.07;;;-0.50;99.90;;;;;;5135980;27;20035;-28
2022/04/02 04:16:55;;;;;;;4.63;1.00;;;-0.20;99.90;;;;;;5117779;27;20047;-28
2022/04/02 04:19:21;;;;;;;4.87;1.40;;;-0.40;99.90;;;;;;5100572;27;20085;-27
2022/04/02 04:21:48;;;;;;;1.93;1.03;;;0.40;99.90;;;;;;5136472;27;20464;-27
2022/04/02 04:24:14;;;;;;;3.53;0.77;;;-0.50;99.90;;;;;;5136688;27;20126;-27
2022/04/02 04:26:42;;;;;;;2.27;0.80;;;-0.40;99.90;;;;;;5135917;27;20047;-28
2022/04/02 04:29:08;;;;;;;2.73;1.00;;;-0.30;99.90;;;;;;5084027;27;20061;-27
2022/04/02 04:31:34;;;;;;;3.70;0.90;;;0.20;99.90;;;;;;5117579;27;20089;-28
2022/04/02 04:34:00;;;;;;;5.90;1.27;;;1.10;99.90;;;;;;5135201;27;20075;-28
2022/04/02 04:36:27;;;;;;;2.53;0.80;;;1.00;99.90;;;;;;5101027;27;20043;-27
2022/04/02 04:38:53;;;;;;;3.20;1.10;;;0.30;99.90;;;;;;5136422;27;20122;-28
2022/04/02 04:41:19;;;;;;;5.67;1.20;;;0.30;99.90;;;;;;5117224;27;20134;-28
2022/04/02 04:43:49;;;;;;;4.87;1.10;;;0.30;99.90;;;;;;5117150;27;20051;-27
2022/04/02 04:46:19;;;;;;;3.53;1.40;;;0.10;99.90;;;;;;5136344;27;20043;-27
2022/04/02 04:48:45;;;;;;;4.13;1.63;;;0.10;99.90;;;;;;5135978;27;20104;-28
2022/04/02 04:51:12;;;;;;;1.97;1.00;;;0.30;99.90;;;;;;5135938;27;20081;-28
2022/04/02 04:53:40;;;;;;;4.17;0.90;;;0.30;99.90;;;;;;5135326;27;20043;-27
2022/04/02 04:56:06;;;;;;;4.83;1.50;;;0.20;99.90;;;;;;5099750;27;20086;-27
2022/04/02 04:58:32;;;;;;;2.83;1.07;;;0.60;99.90;;;;;;5135336;27;20051;-28
2022/04/02 05:00:58;;;;;;;4.07;1.00;;;0.30;99.90;;;;;;5116870;27;20065;-27
2022/04/02 05:03:24;;;;;;;4.47;0.83;;;1.20;92.70;;;;;;5135131;27;20381;-28
2022/04/02 05:05:52;;;;;;;3.03;0.87;;;0.30;99.90;;;;;;5135098;27;20494;-27
2022/04/02 05:08:18;;;;;;;3.97;1.40;;;0.80;99.90;;;;;;5135073;27;20464;-27
2022/04/02 05:10:44;;;;;;;3.97;1.17;;;1.20;90.20;;;;;;5135144;27;20035;-27
2022/04/02 05:13:12;;;;;;;7.77;1.17;;;0.20;93.20;;;;;;5135070;27;20047;-27
2022/04/02 05:15:40;;;;;;;1.87;0.83;;;0.10;99.70;;;;;;5135445;27;20459;-27
2022/04/02 05:18:06;;;;;;;2.30;0.90;;;0.20;99.90;;;;;;5134905;27;20043;-27
2022/04/02 05:20:31;;;;;;;3.60;0.73;;;0.20;99.90;;;;;;5135751;27;20050;-28
2022/04/02 05:22:57;;;;;;;4.00;1.10;;;0.30;94.10;;;;;;5134940;27;20396;-27
2022/04/02 05:25:23;;;;;;;9.40;1.00;;;0.20;93.20;;;;;;5134812;27;20499;-27
2022/04/02 05:27:49;;;;;;;6.13;1.10;;;0.20;99.90;;;;;;5117319;27;20086;-27
2022/04/02 05:30:15;;;;;;;3.43;0.90;;;0.00;99.90;;;;;;5134847;27;20113;-27
2022/04/02 05:32:41;;;;;;;2.37;1.00;;;0.70;99.90;;;;;;5099542;28;20044;-28
2022/04/02 05:35:07;;;;;;;2.87;1.13;;;0.50;99.90;;;;;;5134933;27;20078;-27
2022/04/02 05:37:33;;;;;;;2.80;0.80;;;-0.10;99.90;;;;;;5135271;27;20127;-27
2022/04/02 05:39:59;;;;;;;3.87;2.03;;;0.10;99.90;;;;;;5134670;28;20083;-28
2022/04/02 05:42:26;;;;;;;3.43;1.17;;;0.10;99.90;;;;;;5134680;28;20099;-28
2022/04/02 05:44:53;;;;;;;4.33;1.30;;;0.10;99.90;;;;;;5135173;27;20042;-27
2022/04/02 05:47:19;;;;;;;3.43;1.00;;;0.20;99.90;;;;;;5137722;27;20058;-27
2022/04/02 05:49:48;;;;;;;6.30;1.10;;;0.30;99.90;;;;;;5138793;27;20047;-27
2022/04/02 05:52:13;;;;;;;2.97;1.20;;;0.30;99.90;;;;;;5103884;27;20468;-27
2022/04/02 05:54:39;;;;;;;4.93;1.13;;;0.30;99.90;;;;;;5120887;27;20046;-28
2022/04/02 05:57:05;;;;;;;6.13;1.07;;;0.50;99.90;;;;;;5138502;27;20104;-27
2022/04/02 05:59:32;;;;;;;6.30;2.03;;;0.60;99.90;;;;;;5138705;27;20039;-28
2022/04/02 06:01:58;;;;;;;3.60;1.40;;;0.60;99.90;;;;;;5138721;27;20051;-27
2022/04/02 06:04:25;;;;;;;2.83;1.03;;;1.10;99.90;;;;;;5120391;27;20407;-27
2022/04/02 06:06:51;;;;;;;7.30;1.60;;;0.80;99.90;;;;;;5120701;27;20058;-27
2022/04/02 06:09:17;;;;;;;9.17;2.37;;;1.00;99.90;;;;;;5138622;27;20047;-28
2022/04/02 06:11:42;;;;;;;3.30;1.43;;;2.00;99.90;;;;;;5138225;27;20039;-28
2022/04/02 06:14:10;;;;;;;3.93;0.83;;;1.20;99.90;;;;;;5120160;27;20126;-28
2022/04/02 06:16:35;;;;;;;5.23;1.30;;;1.40;99.90;;;;;;5138373;27;20047;-28
2022/04/02 06:19:02;;;;;;;6.50;1.40;;;1.50;99.90;;;;;;5119984;27;20441;-27
2022/04/02 06:21:28;;;;;;;1.93;0.87;;;1.50;99.90;;;;;;5138340;27;20086;-28
2022/04/02 06:23:54;;;;;;;3.90;1.37;;;1.20;99.90;;;;;;5120150;27;20171;-28
2022/04/02 06:26:19;;;;;;;6.40;1.50;;;2.00;99.90;;;;;;5120148;27;20100;-28
2022/04/02 06:28:45;;;;;;;4.67;1.57;;;1.00;99.90;;;;;;5138155;27;20047;-27
2022/04/02 06:31:12;;;;;;;2.87;1.37;;;1.10;99.90;;;;;;5085971;27;20078;-28
2022/04/02 06:33:38;;;;;;;5.23;1.23;;;1.00;99.90;;;;;;5138052;27;20043;-27
2022/04/02 06:36:04;;;;;;;2.87;1.30;;;1.10;99.90;;;;;;5137891;27;20039;-28
2022/04/02 06:38:30;;;;;;;4.77;1.10;;;1.10;42.50;;;;;;5138223;27;20039;-27
2022/04/02 06:40:56;;;;;;;3.27;1.20;;;2.20;90.60;;;;;;5137630;27;20426;-27
2022/04/02 06:43:22;;;;;;;3.10;1.23;;;1.50;22.10;;;;;;5119628;27;20053;-27
2022/04/02 06:45:48;;;;;;;5.07;1.30;;;2.00;22.30;;;;;;5137854;27;20043;-27
2022/04/02 06:48:16;;;;;;;7.00;1.30;;;1.70;34.60;;;;;;5119476;27;20480;-28
2022/04/02 06:50:43;;;;;;;4.03;1.13;;;2.50;72.40;;;;;;5137726;27;20126;-28
2022/04/02 06:53:08;;;;;;;2.10;1.03;;;1.90;52.60;;;;;;5137681;27;20047;-27
2022/04/02 06:55:35;;;;;;;3.23;1.57;;;2.20;49.50;;;;;;5137447;27;20039;-27
2022/04/02 06:58:02;;;;;;;4.27;1.60;;;2.50;31.90;;;;;;5137573;27;20499;-28
2022/04/02 07:00:28;;;;;;;4.67;1.30;;;2.40;76.80;;;;;;5137562;27;20046;-28
2022/04/02 07:02:53;;;;;;;4.07;1.50;;;2.60;90.40;;;;;;5137468;27;20051;-28
2022/04/02 07:05:19;;;;;;;9.63;1.58;;;2.90;99.10;;;;;;5137546;27;20092;-28
2022/04/02 07:07:46;;;;;;;8.97;1.60;;;2.60;99.90;;;;;;5137435;27;20047;-28
2022/04/02 07:10:13;;;;;;;1.97;1.23;;;2.70;99.90;;;;;;5103155;27;20062;-28
2022/04/02 07:12:40;;;;;;;5.73;1.80;;;2.90;99.90;;;;;;5137290;27;20126;-28
2022/04/02 07:15:07;;;;;;;2.23;1.27;;;2.70;81.80;;;;;;5137177;27;20039;-28
2022/04/02 07:17:34;;;;;;;7.27;1.60;;;2.60;99.90;;;;;;5119155;27;20054;-27
2022/04/02 07:20:03;;;;;;;3.08;1.30;;;2.80;89.40;;;;;;5137136;27;20096;-27
2022/04/02 07:22:28;;;;;;;2.30;1.23;;;2.80;99.90;;;;;;5102201;27;20480;-28
2022/04/02 07:24:56;;;;;;;3.33;1.20;;;2.60;99.90;;;;;;5102618;27;20045;-28
2022/04/02 07:27:24;;;;;;;2.22;1.45;;;2.60;99.90;;;;;;5136984;27;20090;-27
2022/04/02 07:29:52;;;;;;;5.47;1.55;;;2.70;99.90;;;;;;5118677;27;20051;-28
2022/04/02 07:32:19;;;;;;;4.45;1.83;;;2.80;94.60;;;;;;5118761;27;20043;-28
2022/04/02 07:34:44;;;;;;;6.30;1.60;;;2.70;99.90;;;;;;5136890;27;20131;-28
2022/04/02 07:37:19;;;;;;;3.97;1.70;;;2.50;99.90;;;;;;5136826;27;20075;-29
2022/04/02 07:40:32;;;;;;;2.93;1.33;;;2.40;99.90;;;;;;5137092;27;20404;-28
2022/04/02 07:43:10;;;;;;;3.15;1.42;;;2.40;99.90;;;;;;5131654;27;20094;-28
2022/04/02 07:45:45;;;;;;;2.83;1.03;;;2.30;99.90;;;;;;5136931;27;20451;-28
2022/04/02 07:48:11;;;;;;;2.80;1.67;;;2.40;99.90;;;;;;5136595;27;20064;-28
2022/04/02 07:50:47;;;;;;;2.95;1.38;;;2.50;99.90;;;;;;5136493;27;20051;-28
2022/04/02 07:53:23;;;;;;;3.73;1.27;;;2.30;99.90;;;;;;5136464;27;20389;-28
2022/04/02 07:56:09;;;;;;;2.60;1.15;;;2.20;99.90;;;;;;5136341;27;20092;-28
2022/04/02 07:58:38;;;;;;;2.83;1.13;;;2.30;99.90;;;;;;5119029;27;20055;-28
2022/04/02 08:01:04;;;;;;;5.45;0.82;;;2.30;99.90;;;;;;5118962;27;20039;-28
2022/04/02 08:03:31;;;;;;;4.05;1.25;;;3.20;99.90;;;;;;5118320;27;20503;-29
2022/04/02 08:05:57;;;;;;;4.22;1.08;;;3.60;99.90;;;;;;5136523;27;20039;-28
2022/04/02 08:08:24;;;;;;;2.72;1.02;;;2.70;99.90;;;;;;5136237;27;20051;-28
2022/04/02 08:10:54;;;;;;;5.85;1.35;;;3.60;99.90;;;;;;5118524;27;20094;-29
2022/04/02 08:13:22;;;;;;;4.95;1.65;;;3.30;99.90;;;;;;5117816;27;20047;-28
2022/04/02 08:15:51;;;;;;;3.38;1.55;;;3.70;99.90;;;;;;5135851;27;20042;-28
2022/04/02 08:18:22;;;;;;;3.05;0.90;;;4.00;50.60;;;;;;5117864;27;20051;-28
2022/04/02 08:20:50;;;;;;;2.90;1.23;;;4.20;19.00;;;;;;5136533;27;20051;-27
2022/04/02 08:23:16;;;;;;;3.78;0.90;;;4.00;2.10;;;;;;5117767;27;20047;-28
2022/04/02 08:25:50;;;;;;;1.98;0.60;;;4.10;4.00;;;;;;5135747;27;20035;-28
2022/04/02 08:28:24;;;;;;;3.20;1.00;;;4.20;1.00;;;;;;5117502;27;20047;-27
2022/04/02 08:31:04;;;;;;;3.92;0.98;;;4.20;1.00;;;;;;5135726;27;20086;-28
2022/04/02 08:33:48;;;;;;;3.67;0.90;;;4.20;1.00;;;;;;5117786;27;20048;-27
2022/04/02 08:36:13;;;;;;;;;;;4.30;1.00;;;;;;5136008;27;20043;-28
2022/04/02 08:38:54;;;;;;;1.58;0.60;;;4.40;1.00;;;;;;5117527;27;19995;-29
2022/04/02 08:41:52;;;;;;;1.80;0.82;;;4.50;1.00;;;;;;5136122;27;20047;-28
2022/04/02 08:44:46;;;;;;;2.67;0.90;;;4.60;1.00;;;;;;5134383;27;20051;-27
2022/04/02 08:47:33;;;;;;;3.88;0.88;;;4.50;1.00;;;;;;5136209;27;20165;-28
2022/04/02 08:50:14;;;;;;;5.93;1.20;;;4.60;1.00;;;;;;5135311;27;20537;-28
2022/04/02 08:53:07;;;;;;;3.85;0.70;;;4.60;1.00;;;;;;5116928;27;20087;-28
2022/04/02 08:55:36;;;;;;;3.08;0.82;;;4.50;1.00;;;;;;5100898;27;20383;-27
2022/04/02 08:58:11;;;;;;;3.78;1.00;;;4.40;1.00;;;;;;5116844;27;20100;-27
2022/04/02 09:00:48;;;;;;;4.13;0.80;;;4.30;1.00;;;;;;5134810;27;20084;-27
2022/04/02 09:03:45;;;;;;;2.88;0.85;;;4.10;1.00;;;;;;5116758;27;20138;-28
2022/04/02 09:06:32;;;;;;;1.60;0.60;;;4.10;1.00;;;;;;5117141;27;20119;-27
2022/04/02 09:09:13;;;;;;;3.25;0.75;;;4.20;1.00;;;;;;5134986;27;20096;-27
2022/04/02 09:12:07;;;;;;;1.63;0.60;;;4.80;1.00;;;;;;5135260;27;20050;-28
2022/04/02 09:15:06;;;;;;;1.90;0.63;;;4.60;1.00;;;;;;5116884;27;20062;-27
2022/04/02 09:17:49;;;;;;;2.35;0.77;;;5.10;99.90;;;;;;5134895;27;20047;-28
2022/04/02 09:20:23;;;;;;;2.38;0.47;;;5.60;99.90;;;;;;5134476;27;20043;-27
2022/04/02 09:23:11;;;;;;;3.85;0.60;;;5.40;99.90;;;;;;5134818;27;20047;-29
2022/04/02 09:25:46;;;;;;;4.10;1.02;;;5.00;99.90;;;;;;5135390;27;20092;-27
2022/04/02 09:28:44;;;;;;;2.25;0.50;;;4.90;99.90;;;;;;5134808;27;20046;-27
2022/04/02 09:31:31;;;;;;;7.15;1.00;;;4.80;99.90;;;;;;5135040;27;20039;-28
2022/04/02 09:34:03;;;;;;;2.45;0.60;;;5.00;99.90;;;;;;5117390;27;20090;-28
2022/04/02 09:36:41;;;;;;;1.52;0.52;;;5.90;99.90;;;;;;5116987;28;20069;-27
2022/04/02 09:39:29;;;;;;;3.25;0.50;;;6.30;99.90;;;;;;5117051;27;20057;-28
2022/04/02 09:42:15;;;;;;;1.95;0.60;;;6.10;99.90;;;;;;5134659;27;20082;-27
2022/04/02 09:45:05;;;;;;;4.03;1.08;;;5.70;99.90;;;;;;5135179;28;20051;-28
2022/04/02 09:47:50;;;;;;;4.45;0.98;;;5.30;99.90;;;;;;5134790;28;20511;-29
2022/04/02 09:50:24;;;;;;;2.33;0.60;;;5.60;99.90;;;;;;5134783;28;20488;-29
2022/04/02 09:53:21;;;;;;;2.08;0.52;;;5.20;99.90;;;;;;5116446;28;20373;-27
2022/04/02 09:56:02;;;;;;;0.93;0.50;;;5.70;99.90;;;;;;5115945;28;20035;-29
2022/04/02 09:58:58;;;;;;;1.42;0.65;;;6.60;99.90;;;;;;5134951;28;20059;-28
2022/04/02 10:01:31;;;;;;;2.55;0.70;;;6.50;99.90;;;;;;5134421;28;20055;-29
2022/04/02 10:04:22;;;;;;;2.83;0.70;;;6.60;99.90;;;;;;5134908;28;20392;-28
2022/04/02 10:06:49;;;;;;;2.83;0.70;;;6.10;99.90;;;;;;5134667;28;20047;-28
2022/04/02 10:09:18;;;;;;;3.70;0.77;;;5.70;99.90;;;;;;5134827;28;20051;-28
2022/04/02 10:11:47;;;;;;;4.70;0.82;;;6.10;99.90;;;;;;5134274;28;20071;-29
2022/04/02 10:14:18;;;;;;;4.15;0.70;;;7.30;99.90;;;;;;5134324;28;20055;-28
2022/04/02 10:16:49;;;;;;;3.60;0.68;;;7.90;99.90;;;;;;5116433;28;20369;-27
2022/04/02 10:19:17;;;;;;;2.58;0.82;;;7.10;99.90;;;;;;5116161;28;20043;-28
2022/04/02 10:21:50;;;;;;;2.72;0.57;;;6.50;99.90;;;;;;5134197;28;20058;-28
2022/04/02 10:24:23;;;;;;;2.75;0.60;;;6.70;99.90;;;;;;5134705;28;20128;-27
2022/04/02 10:26:55;;;;;;;2.13;0.50;;;6.10;99.90;;;;;;5134185;28;20054;-28
2022/04/02 10:29:56;;;;;;;1.13;0.40;;;5.60;99.90;;;;;;5116122;28;20133;-27
2022/04/02 10:32:53;;;;;;;3.47;0.50;;;5.30;99.90;;;;;;5135613;27;20051;-27
2022/04/02 10:35:23;;;;;;;2.50;0.77;;;5.90;99.90;;;;;;5138509;27;20118;-28
2022/04/02 10:38:10;;;;;;;5.10;1.00;;;6.80;99.90;;;;;;5137977;27;20046;-28
2022/04/02 10:41:02;;;;;;;3.05;0.95;;;7.20;99.90;;;;;;5137867;27;20047;-27
2022/04/02 10:43:30;;;;;;;3.83;1.20;;;6.80;99.90;;;;;;5101842;27;20476;-28
2022/04/02 10:45:58;;;;;;;2.97;0.90;;;6.50;99.90;;;;;;5137827;27;20043;-27
2022/04/02 10:48:33;;;;;;;1.85;0.60;;;6.80;99.90;;;;;;5119485;27;20495;-28
2022/04/02 10:51:01;;;;;;;2.83;0.28;;;7.20;99.90;;;;;;5138587;27;20051;-28
2022/04/02 10:53:33;;;;;;;3.08;0.80;;;8.00;99.90;;;;;;5137620;27;20058;-28
2022/04/02 10:56:03;;;;;;;4.32;1.05;;;8.20;99.90;;;;;;5137550;27;20097;-28
2022/04/02 10:58:36;;;;;;;2.63;0.60;;;8.50;99.90;;;;;;5103299;27;20051;-28
2022/04/02 11:01:04;;;;;;;4.85;0.98;;;8.90;99.90;;;;;;5138466;27;20075;-28
2022/04/02 11:03:41;;;;;;;3.60;0.82;;;9.30;1.00;;;;;;5137569;27;20047;-28
2022/04/02 11:06:08;;;;;;;4.68;0.40;;;9.00;99.90;;;;;;5138328;27;20054;-28
2022/04/02 11:08:34;;;;;;;1.85;0.65;;;8.70;99.90;;;;;;5137931;27;20039;-28
2022/04/02 11:11:19;;;;;;;2.83;0.98;;;8.80;99.90;;;;;;5137555;27;20069;-28
2022/04/02 11:13:45;;;;;;;2.78;0.55;;;8.70;99.90;;;;;;5137562;27;20396;-28
2022/04/02 11:16:15;;;;;;;2.10;0.57;;;9.20;99.90;;;;;;5137141;27;20039;-28
2022/04/02 11:19:53;;;;;;;2.53;0.93;;;9.30;99.90;;;;;;5137056;27;20039;-27
2022/04/02 11:21:37;;;;;;;3.25;0.70;;;9.80;99.90;;;;;;5137353;27;20378;-29
2022/04/02 11:24:09;;;;;;;2.42;0.50;;;9.40;99.90;;;;;;5137058;27;20054;-28
2022/04/02 11:26:38;;;;;;;3.60;0.45;;;9.90;99.90;;;;;;5137268;27;20496;-28
2022/04/02 11:29:04;;;;;;;4.93;0.98;;;9.10;99.90;;;;;;5136917;27;20053;-28
2022/04/02 11:31:30;;;;;;;2.78;0.90;;;8.30;99.90;;;;;;5119439;27;20039;-27
2022/04/02 11:33:58;;;;;;;1.73;0.50;;;8.40;99.90;;;;;;5136887;27;20108;-28
2022/04/02 11:36:43;;;;;;;1.90;0.63;;;8.60;99.90;;;;;;5136654;27;20112;-28
2022/04/02 11:39:21;;;;;;;1.13;0.50;;;9.30;99.90;;;;;;5137124;27;20074;-28
2022/04/02 11:41:53;;;;;;;1.63;0.52;;;8.90;99.90;;;;;;5137272;27;20047;-28
2022/04/02 11:44:19;;;;;;;3.22;0.57;;;9.00;99.90;;;;;;5135412;27;20039;-29
2022/04/02 11:47:06;;;;;;;2.78;0.40;;;9.10;99.90;;;;;;5136856;27;20039;-28
2022/04/02 11:49:39;;;;;;;4.93;0.77;;;9.30;99.90;;;;;;5119344;27;20043;-28
2022/04/02 11:52:07;;;;;;;3.58;1.13;;;9.10;99.90;;;;;;5137119;27;20452;-28
2022/04/02 11:54:53;;;;;;;3.45;0.75;;;9.20;99.90;;;;;;5101199;27;20050;-27
2022/04/02 11:57:19;;;;;;;3.30;0.55;;;8.20;99.90;;;;;;5113749;28;20056;-27
2022/04/02 11:59:59;;;;;;;2.80;0.82;;;7.20;99.90;;;;;;5115738;28;20043;-27
2022/04/02 12:02:42;;;;;;;1.92;0.68;;;6.40;99.90;;;;;;5115788;28;20046;-29
2022/04/02 12:05:10;;;;;;;2.80;1.00;;;7.00;99.90;;;;;;5116410;28;20150;-27
2022/04/02 12:07:50;;;;;;;4.03;0.98;;;7.30;99.90;;;;;;5115586;28;20035;-27
2022/04/02 12:10:27;;;;;;;2.45;0.80;;;7.70;99.90;;;;;;5115654;28;20112;-28
2022/04/02 12:12:55;;;;;;;4.90;0.90;;;7.50;99.90;;;;;;5115493;28;20424;-27
2022/04/02 12:15:22;;;;;;;5.47;0.70;;;7.20;99.90;;;;;;5113881;28;20122;-28
2022/04/02 12:18:02;;;;;;;2.78;1.10;;;6.80;99.90;;;;;;5114190;28;20100;-28
2022/04/02 12:20:39;;;;;;;2.58;0.40;;;7.50;99.90;;;;;;5116078;28;20043;-27
2022/04/02 12:23:05;;;;;;;4.65;0.57;;;6.50;99.90;;;;;;5115528;28;20548;-27
2022/04/02 12:25:32;;;;;;;3.80;0.80;;;6.40;99.90;;;;;;5115289;28;20039;-27
2022/04/02 12:27:58;;;;;;;2.53;0.57;;;6.20;99.90;;;;;;5115198;28;20048;-27
2022/04/02 12:30:24;;;;;;;4.38;0.50;;;6.70;99.90;;;;;;5115151;28;20044;-27
2022/04/02 12:32:50;;;;;;;5.43;0.90;;;6.80;99.90;;;;;;5098016;28;20048;-27
2022/04/02 12:35:27;;;;;;;3.58;0.93;;;7.20;99.90;;;;;;5115493;28;20373;-27
2022/04/02 12:37:57;;;;;;;4.25;0.80;;;7.50;99.90;;;;;;5115350;28;20051;-27
2022/04/02 12:40:29;;;;;;;2.72;0.40;;;7.30;99.90;;;;;;5080999;28;20047;-28
2022/04/02 12:43:06;;;;;;;3.17;0.55;;;7.70;99.90;;;;;;5114593;28;20472;-27
2022/04/02 12:45:33;;;;;;;2.03;0.60;;;7.20;99.90;;;;;;5115761;28;20496;-27
2022/04/02 12:48:04;;;;;;;2.55;0.70;;;6.80;99.90;;;;;;5114816;28;20499;-27
2022/04/02 12:50:33;;;;;;;2.08;0.70;;;6.50;99.90;;;;;;5114203;28;20043;-27
2022/04/02 12:52:59;;;;;;;2.55;0.63;;;6.90;99.90;;;;;;5113581;28;20039;-27
2022/04/02 12:55:31;;;;;;;2.40;0.70;;;6.90;99.90;;;;;;5114535;28;20496;-27
2022/04/02 12:58:08;;;;;;;1.25;0.52;;;8.00;99.90;;;;;;5130841;27;20051;-27
2022/04/02 13:00:41;;;;;;;5.75;0.57;;;7.50;99.90;;;;;;5116712;27;20055;-27
2022/04/02 13:03:08;;;;;;;2.40;0.63;;;7.40;99.90;;;;;;5135403;27;20133;-27
2022/04/02 13:05:44;;;;;;;4.95;0.68;;;8.10;99.90;;;;;;5135034;27;20092;-28
2022/04/02 13:08:25;;;;;;;2.38;0.50;;;8.40;99.90;;;;;;5135076;27;20473;-28
2022/04/02 13:10:59;;;;;;;1.75;0.65;;;8.10;99.90;;;;;;5116697;27;20054;-27
2022/04/02 13:13:37;;;;;;;1.67;0.80;;;8.20;99.90;;;;;;5135494;27;20389;-27
2022/04/02 13:16:04;;;;;;;1.88;0.38;;;8.70;99.90;;;;;;5117275;27;20042;-27